Accueil
METAR-TAF:

METAR-TAF

Aéroports :

Chumpon, Thaïlande

latitude: 10-42-40N, longitude: 099-21-42E, altitude: 5 m

Observation

Le bulletin a été fait il y a 2 heures et 40 minutes, à 12:00 UTC
Vent 4 kt de sud/sud-est, variant entre est/sud-est et sud
Température 28°C
Humidité 74%
Pression 1009 hPa
Visibilité 10 km ou plus
Quelques nuages à une hauteur de 2000 ft

METAR: VTSE 261200Z 16004KT 120V190 9999 FEW020 28/23 Q1009 NOSIG

Heure: 21:40 (14:40 UTC)

Prévision

Le bulletin a été fait il y a 3 heures et 40 minutes, à 11:00 UTC
Prévision valable du 26 à 12 UTC au 27 à 12 UTC
Vent 5 kt de sud-est
Visibilité: 9000 m
Quelques nuages à une hauteur de 2000 ft

TAF: VTSE 261100Z 2612/2712 14005KT 9000 FEW020

Observations et prévisions météorologiques de plus de 4000 aéroports (messages METAR et TAF).

Les stations disponibles sont représentées par des disques jaunes et rouges sur la carte.

Passer la souris dessus pour voir le nom de la station.

Cliquer dessus pour voir les observations et prévisions météorologiques.

Pour changer de carte: cliquez sur les boutons verts avec une croix noire pour zoomer, sur le bouton vert avec un tiret pour effectuer un zoom arrière, ou sur les flèches vertes pour les cartes adjacentes.


METAR-TAF: